createdAt,value
2019-03-15T00:00:15.914Z,23.73
2019-03-15T00:00:48.986Z,24.07
2019-03-15T00:01:22.092Z,24.63
2019-03-15T00:01:55.399Z,25.07
2019-03-15T00:02:26.940Z,22.53
2019-03-15T00:02:58.095Z,24.73
2019-03-15T00:03:29.316Z,20.73
2019-03-15T00:04:00.502Z,21.60
2019-03-15T00:04:31.709Z,22.60
2019-03-15T00:05:04.306Z,21.17
2019-03-15T00:05:35.553Z,23.63
2019-03-15T00:06:06.825Z,22.40
2019-03-15T00:06:38.068Z,22.93
2019-03-15T00:07:09.294Z,21.83
2019-03-15T00:07:41.279Z,19.23
2019-03-15T00:08:12.568Z,25.50
2019-03-15T00:08:43.792Z,26.23
2019-03-15T00:09:15.031Z,23.67
2019-03-15T00:09:46.281Z,25.90
2019-03-15T00:10:17.508Z,23.93
2019-03-15T00:10:48.665Z,27.23
2019-03-15T00:11:19.878Z,26.20
2019-03-15T00:11:51.039Z,27.57
2019-03-15T00:12:22.257Z,25.30
2019-03-15T00:12:54.391Z,22.47
2019-03-15T00:13:25.599Z,26.27
2019-03-15T00:13:56.759Z,23.43
2019-03-15T00:14:27.974Z,22.70
2019-03-15T00:14:59.243Z,26.60
2019-03-15T00:15:30.474Z,23.63
2019-03-15T00:16:01.631Z,21.70
2019-03-15T00:16:32.855Z,23.00
2019-03-15T00:17:04.011Z,24.00
2019-03-15T00:17:35.251Z,21.23
2019-03-15T00:18:06.667Z,22.77
2019-03-15T00:18:37.897Z,23.53
2019-03-15T00:19:09.059Z,22.23
2019-03-15T00:19:40.309Z,19.63
2019-03-15T00:20:11.567Z,21.87
2019-03-15T00:20:42.793Z,24.40
2019-03-15T00:21:13.955Z,23.87
2019-03-15T00:21:45.174Z,20.30
2019-03-15T00:22:16.339Z,26.67
2019-03-15T00:22:47.541Z,23.43
2019-03-15T00:23:18.696Z,21.73
2019-03-15T00:23:49.909Z,21.93
2019-03-15T00:24:21.064Z,23.00
2019-03-15T00:24:52.263Z,22.53
2019-03-15T00:25:23.474Z,19.53
2019-03-15T00:25:55.412Z,21.17
2019-03-15T00:26:27.048Z,23.63
2019-03-15T00:26:58.229Z,23.03
2019-03-15T00:27:29.390Z,21.60
2019-03-15T00:28:00.609Z,23.10
2019-03-15T00:28:31.771Z,28.70
2019-03-15T00:29:02.985Z,25.07
2019-03-15T00:29:34.138Z,22.90
2019-03-15T00:30:10.164Z,21.97
2019-03-15T00:30:41.421Z,25.77
2019-03-15T00:31:12.638Z,23.10
2019-03-15T00:31:43.784Z,22.43
2019-03-15T00:32:14.985Z,23.97
2019-03-15T00:32:46.144Z,22.67
2019-03-15T00:33:17.363Z,25.27
2019-03-15T00:33:48.505Z,23.30
2019-03-15T00:34:19.708Z,23.57
2019-03-15T00:34:50.865Z,22.00
2019-03-15T00:35:22.091Z,20.40
2019-03-15T00:35:53.482Z,25.63
2019-03-15T00:36:24.694Z,23.30
2019-03-15T00:36:55.841Z,22.63
2019-03-15T00:37:27.074Z,20.90
2019-03-15T00:37:58.232Z,22.20
2019-03-15T00:38:29.467Z,20.17
2019-03-15T00:39:00.635Z,22.83
2019-03-15T00:39:31.843Z,23.77
2019-03-15T00:40:09.205Z,21.30
2019-03-15T00:40:40.395Z,24.53
2019-03-15T00:41:11.574Z,24.17
2019-03-15T00:41:42.737Z,24.30
2019-03-15T00:42:13.968Z,23.27
2019-03-15T00:42:45.131Z,26.50
2019-03-15T00:43:17.343Z,20.60
2019-03-15T00:43:49.648Z,19.40
2019-03-15T00:44:21.112Z,18.47
2019-03-15T00:44:52.276Z,19.70
2019-03-15T00:45:23.907Z,23.57
2019-03-15T00:45:55.095Z,19.93
2019-03-15T00:46:26.339Z,18.57
2019-03-15T00:46:57.499Z,19.67
2019-03-15T00:47:28.718Z,20.27
2019-03-15T00:47:59.888Z,20.87
2019-03-15T00:48:31.112Z,20.30
2019-03-15T00:49:02.271Z,18.77
2019-03-15T00:49:33.492Z,17.10
2019-03-15T00:50:07.959Z,20.57
2019-03-15T00:50:39.192Z,21.80
2019-03-15T00:51:10.392Z,23.07
2019-03-15T00:51:41.624Z,24.60
2019-03-15T00:52:12.912Z,21.17
2019-03-15T00:52:44.152Z,20.17
2019-03-15T00:53:15.396Z,22.53
2019-03-15T00:53:46.612Z,25.03
2019-03-15T00:54:17.845Z,25.40
2019-03-15T00:54:49.074Z,25.87
2019-03-15T00:55:20.296Z,21.47
2019-03-15T00:55:52.450Z,21.77
2019-03-15T00:56:23.662Z,24.17
2019-03-15T00:56:54.824Z,21.77
2019-03-15T00:57:26.340Z,22.67
2019-03-15T00:57:57.517Z,21.97
2019-03-15T00:58:28.731Z,22.60
2019-03-15T00:58:59.888Z,20.73
2019-03-15T00:59:31.121Z,20.57
2019-03-15T01:00:06.477Z,18.33
2019-03-15T01:00:37.693Z,21.40
2019-03-15T01:01:09.111Z,21.67
2019-03-15T01:01:40.318Z,22.97
2019-03-15T01:02:11.544Z,18.63
2019-03-15T01:02:44.176Z,21.90
2019-03-15T01:03:15.663Z,22.63
2019-03-15T01:03:46.899Z,24.73
2019-03-15T01:04:18.064Z,23.47
2019-03-15T01:04:49.267Z,24.47
2019-03-15T01:05:20.433Z,21.77
2019-03-15T01:05:51.645Z,21.83
2019-03-15T01:06:22.881Z,21.97
2019-03-15T01:06:54.063Z,23.10
2019-03-15T01:07:25.239Z,25.97
2019-03-15T01:07:56.435Z,22.30
2019-03-15T01:08:27.629Z,22.13
2019-03-15T01:08:58.802Z,24.03
2019-03-15T01:09:30.007Z,22.93
2019-03-15T01:10:01.195Z,22.67
2019-03-15T01:10:32.371Z,23.93
2019-03-15T01:11:03.547Z,23.87
2019-03-15T01:11:34.747Z,25.73
2019-03-15T01:12:06.033Z,23.03
2019-03-15T01:12:37.228Z,25.77
2019-03-15T01:13:08.457Z,25.13
2019-03-15T01:13:39.665Z,25.83
2019-03-15T01:14:10.865Z,21.87
2019-03-15T01:14:42.048Z,21.53
2019-03-15T01:15:13.236Z,23.03
2019-03-15T01:15:44.417Z,22.83
2019-03-15T01:16:15.604Z,25.53
2019-03-15T01:16:46.809Z,20.67
2019-03-15T01:17:17.992Z,25.20
2019-03-15T01:17:49.168Z,22.83
2019-03-15T01:18:20.348Z,23.53
2019-03-15T01:18:51.542Z,25.17
2019-03-15T01:19:22.721Z,21.93
2019-03-15T01:19:53.990Z,22.77
2019-03-15T01:20:25.183Z,22.17
2019-03-15T01:20:56.428Z,21.13
2019-03-15T01:21:27.610Z,20.33
2019-03-15T01:21:58.798Z,23.30
2019-03-15T01:22:29.975Z,20.27
2019-03-15T01:23:01.152Z,24.03
2019-03-15T01:23:32.422Z,20.30
2019-03-15T01:24:03.616Z,20.03
2019-03-15T01:24:34.804Z,21.20
2019-03-15T01:25:07.068Z,22.60
2019-03-15T01:25:38.267Z,20.53
2019-03-15T01:26:09.427Z,18.53
2019-03-15T01:26:40.614Z,22.10
2019-03-15T01:27:11.805Z,17.07
2019-03-15T01:27:42.994Z,17.17
2019-03-15T01:28:14.179Z,19.80
2019-03-15T01:28:45.401Z,16.63
2019-03-15T01:29:16.668Z,20.07
2019-03-15T01:29:47.843Z,19.77
2019-03-15T01:30:19.044Z,20.50
2019-03-15T01:30:50.279Z,19.90
2019-03-15T01:31:21.573Z,17.83
2019-03-15T01:31:52.750Z,18.17
2019-03-15T01:32:24.049Z,20.10
2019-03-15T01:32:55.227Z,18.23
2019-03-15T01:33:26.415Z,19.53
2019-03-15T01:33:57.610Z,24.07
2019-03-15T01:34:28.795Z,18.43
2019-03-15T01:35:00.160Z,18.10
2019-03-15T01:35:33.547Z,19.63
2019-03-15T01:36:04.600Z,19.87
2019-03-15T01:36:35.822Z,21.27
2019-03-15T01:37:07.015Z,19.10
2019-03-15T01:37:38.225Z,21.83
2019-03-15T01:38:09.381Z,21.93
2019-03-15T01:38:40.691Z,24.80
2019-03-15T01:39:11.854Z,25.80
2019-03-15T01:39:43.078Z,23.83
2019-03-15T01:40:15.146Z,24.20
2019-03-15T01:40:48.873Z,23.30
2019-03-15T01:41:19.458Z,21.17
2019-03-15T01:41:50.669Z,23.07
2019-03-15T01:42:22.251Z,19.33
2019-03-15T01:42:53.546Z,19.93
2019-03-15T01:43:24.718Z,19.40
2019-03-15T01:43:56.316Z,21.50
2019-03-15T01:44:27.472Z,19.93
2019-03-15T01:44:58.656Z,22.30
2019-03-15T01:45:29.817Z,22.40
2019-03-15T01:46:01.043Z,19.83
2019-03-15T01:46:32.221Z,23.33
2019-03-15T01:47:03.499Z,19.33
2019-03-15T01:47:34.661Z,17.77
2019-03-15T01:48:05.893Z,20.83
2019-03-15T01:48:37.050Z,27.17
2019-03-15T01:49:08.678Z,27.10
2019-03-15T01:49:39.923Z,26.27
2019-03-15T01:50:11.144Z,26.43
2019-03-15T01:50:42.280Z,29.30
2019-03-15T01:51:13.503Z,30.27
2019-03-15T01:51:44.653Z,25.37
2019-03-15T01:52:15.899Z,31.10
2019-03-15T01:52:47.064Z,28.90
2019-03-15T01:53:18.272Z,28.33
2019-03-15T01:53:49.436Z,23.70
2019-03-15T01:54:20.649Z,27.53
2019-03-15T01:54:51.807Z,24.90
2019-03-15T01:55:23.006Z,27.27
2019-03-15T01:55:54.226Z,20.63
2019-03-15T01:56:25.437Z,18.90
2019-03-15T01:56:56.645Z,21.57
2019-03-15T01:57:27.838Z,21.07
2019-03-15T01:57:59.014Z,21.27
2019-03-15T01:58:30.214Z,22.00
2019-03-15T01:59:01.397Z,21.13
2019-03-15T01:59:32.617Z,20.20
2019-03-15T02:00:08.349Z,18.47
2019-03-15T02:00:39.538Z,20.03
2019-03-15T02:01:10.837Z,20.47
2019-03-15T02:01:42.073Z,21.70
2019-03-15T02:02:13.364Z,19.23
2019-03-15T02:02:44.558Z,20.27
2019-03-15T02:03:15.740Z,26.10
2019-03-15T02:03:46.945Z,20.03
2019-03-15T02:04:18.131Z,18.20
2019-03-15T02:04:49.812Z,22.83
2019-03-15T02:05:21.007Z,17.70
2019-03-15T02:05:52.191Z,17.90
2019-03-15T02:06:23.400Z,17.50
2019-03-15T02:06:55.604Z,19.27
2019-03-15T02:07:27.183Z,19.57
2019-03-15T02:07:58.372Z,20.90
2019-03-15T02:08:29.638Z,24.10
2019-03-15T02:09:00.887Z,22.87
2019-03-15T02:09:32.076Z,18.17
2019-03-15T02:10:06.678Z,23.37
2019-03-15T02:10:37.874Z,19.63
2019-03-15T02:11:09.092Z,19.47
2019-03-15T02:11:40.276Z,16.73
2019-03-15T02:12:11.484Z,16.90
2019-03-15T02:12:42.621Z,18.60
2019-03-15T02:13:13.816Z,19.60
2019-03-15T02:13:44.983Z,21.23
2019-03-15T02:14:16.206Z,18.90
2019-03-15T02:14:47.369Z,19.60
2019-03-15T02:15:18.739Z,17.63
2019-03-15T02:15:49.953Z,18.97
2019-03-15T02:16:21.187Z,17.77
2019-03-15T02:16:52.359Z,18.67
2019-03-15T02:17:23.955Z,17.70
2019-03-15T02:17:55.120Z,23.03
2019-03-15T02:18:26.393Z,21.77
2019-03-15T02:18:57.557Z,22.63
2019-03-15T02:19:28.767Z,20.40
2019-03-15T02:19:59.918Z,18.73
2019-03-15T02:20:31.127Z,18.73
2019-03-15T02:21:02.281Z,19.10
2019-03-15T02:21:33.491Z,18.77
2019-03-15T02:22:04.659Z,20.27
2019-03-15T02:22:35.976Z,22.73
2019-03-15T02:23:07.136Z,17.23
2019-03-15T02:23:39.367Z,20.03
2019-03-15T02:24:10.573Z,22.87
2019-03-15T02:24:41.857Z,21.07
2019-03-15T02:25:13.036Z,20.27
2019-03-15T02:25:44.306Z,19.83
2019-03-15T02:26:15.495Z,20.20
2019-03-15T02:26:46.655Z,20.37
2019-03-15T02:27:17.840Z,19.10
2019-03-15T02:27:49.026Z,19.53
2019-03-15T02:28:20.213Z,18.57
2019-03-15T02:28:51.395Z,19.80
2019-03-15T02:29:22.598Z,18.37
2019-03-15T02:29:54.159Z,20.40
2019-03-15T02:30:25.361Z,22.17
2019-03-15T02:30:56.545Z,21.73
2019-03-15T02:31:27.733Z,19.80
2019-03-15T02:31:58.932Z,15.23
2019-03-15T02:32:30.109Z,16.83
2019-03-15T02:33:01.290Z,18.10
2019-03-15T02:33:33.484Z,22.07
2019-03-15T02:34:05.073Z,16.80
2019-03-15T02:34:36.254Z,18.57
2019-03-15T02:35:07.429Z,20.13
2019-03-15T02:35:38.608Z,19.47
2019-03-15T02:36:09.815Z,18.20
2019-03-15T02:36:40.994Z,18.43
2019-03-15T02:37:12.219Z,16.80
2019-03-15T02:37:43.404Z,16.37
2019-03-15T02:38:14.591Z,15.57
2019-03-15T02:38:45.875Z,18.83
2019-03-15T02:39:18.077Z,20.63
2019-03-15T02:39:49.262Z,17.13
2019-03-15T02:40:21.396Z,18.67
2019-03-15T02:40:52.639Z,19.17
2019-03-15T02:41:24.160Z,15.77
2019-03-15T02:41:55.463Z,20.73
2019-03-15T02:42:27.140Z,15.53
2019-03-15T02:42:58.334Z,15.70
2019-03-15T02:43:29.548Z,16.37
2019-03-15T02:44:00.705Z,18.97
2019-03-15T02:44:31.911Z,17.43
2019-03-15T02:45:03.787Z,18.17
2019-03-15T02:45:35.111Z,16.93
2019-03-15T02:46:06.290Z,19.23
2019-03-15T02:46:37.613Z,16.10
2019-03-15T02:47:08.763Z,16.53
2019-03-15T02:47:39.980Z,18.87
2019-03-15T02:48:11.272Z,14.93
2019-03-15T02:48:42.543Z,16.73
2019-03-15T02:49:13.713Z,18.60
2019-03-15T02:49:44.949Z,16.90
2019-03-15T02:50:16.119Z,18.63
2019-03-15T02:50:47.343Z,16.57
2019-03-15T02:51:18.527Z,15.57
2019-03-15T02:51:50.039Z,15.33
2019-03-15T02:52:21.372Z,14.83
2019-03-15T02:52:52.573Z,16.97
2019-03-15T02:53:23.735Z,17.17
2019-03-15T02:53:54.971Z,18.33
2019-03-15T02:54:27.318Z,17.93
2019-03-15T02:54:58.684Z,17.53
2019-03-15T02:55:29.881Z,16.43
2019-03-15T02:56:01.072Z,18.00
2019-03-15T02:56:32.281Z,17.70
2019-03-15T02:57:03.461Z,16.97
2019-03-15T02:57:35.475Z,18.30
2019-03-15T02:58:07.124Z,17.47
2019-03-15T02:58:38.281Z,16.57
2019-03-15T02:59:09.462Z,19.80
2019-03-15T02:59:40.655Z,14.93
2019-03-15T03:00:11.875Z,16.93
2019-03-15T03:00:43.034Z,19.07
2019-03-15T03:01:14.226Z,17.40
2019-03-15T03:01:45.378Z,17.17
2019-03-15T03:02:16.547Z,16.83
2019-03-15T03:02:47.776Z,16.60
2019-03-15T03:03:18.999Z,16.03
2019-03-15T03:03:50.167Z,16.50
2019-03-15T03:04:21.354Z,18.53
2019-03-15T03:04:52.531Z,17.10
2019-03-15T03:05:23.890Z,16.83
2019-03-15T03:05:55.072Z,15.97
2019-03-15T03:06:27.504Z,16.50
2019-03-15T03:07:00.252Z,17.03
2019-03-15T03:07:31.433Z,18.13
2019-03-15T03:08:02.601Z,15.57
2019-03-15T03:08:33.760Z,16.43
2019-03-15T03:09:04.972Z,15.43
2019-03-15T03:09:36.236Z,17.57
2019-03-15T03:10:07.429Z,16.70
2019-03-15T03:10:38.590Z,15.57
2019-03-15T03:11:09.811Z,16.57
2019-03-15T03:11:40.960Z,17.07
2019-03-15T03:12:12.188Z,19.17
2019-03-15T03:12:44.022Z,19.53
2019-03-15T03:13:15.468Z,16.83
2019-03-15T03:13:46.624Z,17.97
2019-03-15T03:14:17.823Z,19.50
2019-03-15T03:14:48.989Z,17.33
2019-03-15T03:15:20.235Z,17.07
2019-03-15T03:15:52.112Z,18.80
2019-03-15T03:16:23.507Z,18.33
2019-03-15T03:16:54.790Z,17.33
2019-03-15T03:17:26.365Z,20.60
2019-03-15T03:17:57.583Z,18.43
2019-03-15T03:18:28.776Z,17.07
2019-03-15T03:19:01.256Z,20.43
2019-03-15T03:19:32.648Z,15.37
2019-03-15T03:20:05.642Z,20.23
2019-03-15T03:20:36.980Z,17.03
2019-03-15T03:21:08.200Z,21.23
2019-03-15T03:21:39.380Z,20.57
2019-03-15T03:22:10.567Z,19.53
2019-03-15T03:22:41.815Z,19.80
2019-03-15T03:23:13.264Z,18.27
2019-03-15T03:23:44.435Z,19.13
2019-03-15T03:24:15.649Z,19.23
2019-03-15T03:24:47.157Z,18.37
2019-03-15T03:25:18.401Z,17.80
2019-03-15T03:25:49.625Z,19.00
2019-03-15T03:26:20.792Z,17.67
2019-03-15T03:26:52.066Z,19.43
2019-03-15T03:27:23.489Z,19.57
2019-03-15T03:27:54.669Z,21.37
2019-03-15T03:28:25.877Z,21.27
2019-03-15T03:28:57.158Z,19.97
2019-03-15T03:29:28.400Z,18.10
2019-03-15T03:29:59.589Z,15.83
2019-03-15T03:30:30.821Z,16.73
2019-03-15T03:31:02.018Z,16.33
2019-03-15T03:31:33.318Z,16.90
2019-03-15T03:32:04.548Z,16.43
2019-03-15T03:32:35.714Z,16.37
2019-03-15T03:33:06.962Z,16.43
2019-03-15T03:33:40.457Z,17.93
2019-03-15T03:34:12.677Z,16.77
2019-03-15T03:34:44.137Z,18.50
2019-03-15T03:35:15.299Z,14.43
2019-03-15T03:35:46.557Z,15.87
2019-03-15T03:36:17.735Z,17.23
2019-03-15T03:36:48.879Z,18.10
2019-03-15T03:37:20.057Z,17.97
2019-03-15T03:37:51.227Z,18.63
2019-03-15T03:38:22.399Z,19.37
2019-03-15T03:38:53.880Z,18.70
2019-03-15T03:39:25.094Z,17.93
2019-03-15T03:39:56.260Z,16.97
2019-03-15T03:40:29.088Z,17.20
2019-03-15T03:41:00.915Z,18.93
2019-03-15T03:41:32.161Z,17.83
2019-03-15T03:42:03.383Z,17.00
2019-03-15T03:42:34.633Z,17.00
2019-03-15T03:43:05.889Z,17.33
2019-03-15T03:43:37.116Z,16.10
2019-03-15T03:44:08.268Z,15.77
2019-03-15T03:44:39.478Z,16.47
2019-03-15T03:45:10.654Z,15.67
2019-03-15T03:45:41.876Z,16.77
2019-03-15T03:46:13.036Z,18.80
2019-03-15T03:46:44.249Z,15.83
2019-03-15T03:47:15.409Z,17.17
2019-03-15T03:47:47.608Z,15.63
2019-03-15T03:48:18.795Z,20.27
2019-03-15T03:48:50.026Z,17.47
2019-03-15T03:49:21.258Z,17.13
2019-03-15T03:49:53.552Z,16.13
2019-03-15T03:50:24.876Z,16.57
2019-03-15T03:50:59.725Z,18.97
2019-03-15T03:51:29.636Z,17.13
2019-03-15T03:52:00.917Z,17.80
2019-03-15T03:52:32.208Z,19.03
2019-03-15T03:53:03.441Z,20.87
2019-03-15T03:53:34.676Z,17.17
2019-03-15T03:54:05.834Z,17.27
2019-03-15T03:54:37.041Z,16.33
2019-03-15T03:55:08.190Z,16.03
2019-03-15T03:55:39.405Z,15.10
2019-03-15T03:56:10.736Z,16.53
2019-03-15T03:56:41.929Z,18.60
2019-03-15T03:57:13.154Z,18.53
2019-03-15T03:57:44.299Z,20.30
2019-03-15T03:58:15.461Z,16.27
2019-03-15T03:58:46.649Z,18.10
2019-03-15T03:59:17.807Z,14.87
2019-03-15T03:59:48.971Z,16.87
2019-03-15T04:00:20.157Z,17.93
2019-03-15T04:00:51.451Z,19.00
2019-03-15T04:01:22.599Z,18.97
2019-03-15T04:01:54.038Z,17.13
2019-03-15T04:02:25.199Z,17.90
2019-03-15T04:02:56.381Z,17.63
2019-03-15T04:03:27.734Z,17.77
2019-03-15T04:03:58.909Z,18.43
2019-03-15T04:04:30.087Z,18.63
2019-03-15T04:05:01.296Z,17.40
2019-03-15T04:05:32.457Z,17.60
2019-03-15T04:06:03.651Z,23.70
2019-03-15T04:06:34.827Z,18.30
2019-03-15T04:07:05.985Z,20.03
2019-03-15T04:07:37.168Z,20.67
2019-03-15T04:08:08.350Z,17.07
2019-03-15T04:08:39.524Z,19.77
2019-03-15T04:09:10.679Z,16.83
2019-03-15T04:09:41.896Z,20.83
2019-03-15T04:10:13.150Z,16.40
2019-03-15T04:10:44.346Z,16.13
2019-03-15T04:11:15.522Z,20.07
2019-03-15T04:11:55.377Z,17.50
2019-03-15T04:12:19.794Z,14.63
2019-03-15T04:12:51.022Z,18.50
2019-03-15T04:13:22.182Z,13.97
2019-03-15T04:13:53.484Z,18.87
2019-03-15T04:14:24.693Z,19.00
2019-03-15T04:14:55.887Z,20.93
2019-03-15T04:15:27.057Z,18.17
2019-03-15T04:15:58.310Z,16.17
2019-03-15T04:16:29.479Z,17.50
2019-03-15T04:17:00.682Z,20.13
2019-03-15T04:17:31.829Z,20.97
2019-03-15T04:18:06.280Z,18.23
2019-03-15T04:18:36.133Z,17.47
2019-03-15T04:19:07.316Z,20.33
2019-03-15T04:19:38.511Z,17.03
2019-03-15T04:20:11.197Z,19.70
2019-03-15T04:20:42.549Z,17.33
2019-03-15T04:21:13.873Z,21.30
2019-03-15T04:21:46.073Z,16.83
2019-03-15T04:22:17.251Z,17.87
2019-03-15T04:22:48.459Z,18.33
2019-03-15T04:23:19.671Z,16.60
2019-03-15T04:23:50.871Z,13.37
2019-03-15T04:24:22.106Z,15.07
2019-03-15T04:24:53.484Z,14.23
2019-03-15T04:25:24.713Z,15.43
2019-03-15T04:25:57.867Z,14.27
2019-03-15T04:26:29.098Z,16.93
2019-03-15T04:27:00.280Z,14.90
2019-03-15T04:27:31.595Z,15.87
2019-03-15T04:28:02.760Z,15.80
2019-03-15T04:28:33.961Z,15.33
2019-03-15T04:29:05.144Z,17.30
2019-03-15T04:29:36.347Z,17.77
2019-03-15T04:30:10.429Z,16.30
2019-03-15T04:30:41.627Z,16.03
2019-03-15T04:31:12.816Z,17.30
2019-03-15T04:31:44.080Z,18.27
2019-03-15T04:32:15.276Z,16.67
2019-03-15T04:32:46.457Z,13.90
2019-03-15T04:33:18.695Z,14.67
2019-03-15T04:33:50.028Z,13.93
2019-03-15T04:34:21.264Z,15.33
2019-03-15T04:34:52.480Z,14.93
2019-03-15T04:35:23.846Z,16.03
2019-03-15T04:35:55.036Z,14.97
2019-03-15T04:36:26.208Z,15.93
2019-03-15T04:36:57.417Z,14.90
2019-03-15T04:37:28.608Z,14.47
2019-03-15T04:37:59.824Z,13.37
2019-03-15T04:38:31.002Z,15.07
2019-03-15T04:39:03.908Z,13.23
2019-03-15T04:39:35.089Z,15.40
2019-03-15T04:40:10.384Z,12.83
2019-03-15T04:40:43.228Z,13.53
2019-03-15T04:41:14.436Z,14.03
2019-03-15T04:41:45.615Z,14.30
2019-03-15T04:42:16.832Z,15.10
2019-03-15T04:42:48.001Z,17.00
2019-03-15T04:43:20.240Z,14.07
2019-03-15T04:43:51.501Z,15.77
2019-03-15T04:44:22.739Z,15.23
2019-03-15T04:44:53.896Z,13.93
2019-03-15T04:45:25.125Z,16.17
2019-03-15T04:45:56.267Z,16.27
2019-03-15T04:46:27.470Z,15.07
2019-03-15T04:46:58.638Z,14.03
2019-03-15T04:47:29.865Z,13.30
2019-03-15T04:48:01.051Z,14.27
2019-03-15T04:48:32.249Z,13.87
2019-03-15T04:49:03.439Z,13.20
2019-03-15T04:49:34.651Z,13.73
2019-03-15T04:50:06.443Z,15.13
2019-03-15T04:50:37.620Z,12.43
2019-03-15T04:51:08.837Z,12.47
2019-03-15T04:51:40.125Z,13.87
2019-03-15T04:52:11.322Z,13.80
2019-03-15T04:52:42.507Z,14.37
2019-03-15T04:53:13.687Z,13.43
2019-03-15T04:53:44.843Z,12.70
2019-03-15T04:54:16.038Z,13.80
2019-03-15T04:54:47.234Z,13.80
2019-03-15T04:55:18.439Z,14.73
2019-03-15T04:55:49.625Z,12.57
2019-03-15T04:56:20.807Z,13.43
2019-03-15T04:56:51.987Z,15.07
2019-03-15T04:57:23.159Z,13.03
2019-03-15T04:57:54.370Z,13.17
2019-03-15T04:58:25.526Z,15.30
2019-03-15T04:58:56.772Z,15.57
2019-03-15T04:59:27.964Z,15.17
2019-03-15T04:59:59.133Z,14.57
2019-03-15T05:00:30.302Z,15.73
2019-03-15T05:01:01.505Z,12.13
2019-03-15T05:01:32.672Z,15.53
2019-03-15T05:02:03.845Z,13.63
2019-03-15T05:02:35.029Z,14.53
2019-03-15T05:03:06.199Z,14.43
2019-03-15T05:03:37.372Z,16.53
2019-03-15T05:04:08.562Z,14.37
2019-03-15T05:04:39.758Z,13.97
2019-03-15T05:05:10.921Z,14.10
2019-03-15T05:05:42.138Z,15.13
2019-03-15T05:06:13.306Z,13.30
2019-03-15T05:06:44.548Z,12.33
2019-03-15T05:07:15.779Z,14.43
2019-03-15T05:07:46.985Z,11.73
2019-03-15T05:08:18.159Z,13.43
2019-03-15T05:08:49.383Z,14.10
2019-03-15T05:09:20.558Z,14.87
2019-03-15T05:09:51.742Z,14.93
2019-03-15T05:10:23.297Z,15.60
2019-03-15T05:10:54.544Z,15.70
2019-03-15T05:11:25.744Z,13.40
2019-03-15T05:11:57.041Z,14.70
2019-03-15T05:12:28.244Z,13.10
2019-03-15T05:12:59.434Z,12.63
2019-03-15T05:13:30.625Z,14.33
2019-03-15T05:14:01.818Z,16.13
2019-03-15T05:14:33.005Z,13.37
2019-03-15T05:15:07.704Z,12.60
2019-03-15T05:15:38.893Z,10.87
2019-03-15T05:16:10.071Z,15.27
2019-03-15T05:16:41.255Z,11.30
2019-03-15T05:17:12.435Z,12.23
2019-03-15T05:17:43.616Z,9.77
2019-03-15T05:18:14.915Z,10.90
2019-03-15T05:18:46.116Z,11.07
2019-03-15T05:19:17.328Z,11.03
2019-03-15T05:19:48.592Z,12.97
2019-03-15T05:20:21.286Z,10.23
2019-03-15T05:20:52.711Z,10.63
2019-03-15T05:21:24.005Z,12.30
2019-03-15T05:21:55.193Z,9.23
2019-03-15T05:22:26.475Z,12.10
2019-03-15T05:22:57.727Z,9.73
2019-03-15T05:23:28.911Z,10.03
2019-03-15T05:24:00.095Z,11.53
2019-03-15T05:24:31.323Z,11.57
2019-03-15T05:25:04.479Z,12.50
2019-03-15T05:25:35.750Z,14.80
2019-03-15T05:26:06.918Z,12.90
2019-03-15T05:26:38.132Z,13.03
2019-03-15T05:27:09.318Z,13.00
2019-03-15T05:27:40.517Z,12.87
2019-03-15T05:28:11.722Z,12.67
2019-03-15T05:28:42.915Z,13.13
2019-03-15T05:29:14.095Z,12.70
2019-03-15T05:29:45.672Z,13.00
2019-03-15T05:30:16.821Z,12.80
2019-03-15T05:30:48.032Z,12.30
2019-03-15T05:31:19.192Z,11.90
2019-03-15T05:31:50.414Z,11.83
2019-03-15T05:32:21.574Z,11.47
2019-03-15T05:32:52.814Z,11.10
2019-03-15T05:33:23.966Z,12.43
2019-03-15T05:33:55.188Z,12.67
2019-03-15T05:34:26.416Z,10.93
2019-03-15T05:34:57.628Z,12.77
2019-03-15T05:35:28.796Z,12.53
2019-03-15T05:36:00.053Z,12.47
2019-03-15T05:36:31.232Z,14.50
2019-03-15T05:37:02.437Z,12.17
2019-03-15T05:37:33.615Z,12.00
2019-03-15T05:38:04.829Z,13.80
2019-03-15T05:38:36.019Z,11.93
2019-03-15T05:39:07.329Z,14.47
2019-03-15T05:39:39.812Z,13.47
2019-03-15T05:40:11.235Z,11.90
2019-03-15T05:40:42.535Z,14.57
2019-03-15T05:41:13.829Z,13.60
2019-03-15T05:41:45.075Z,11.77
2019-03-15T05:42:16.297Z,12.23
2019-03-15T05:42:47.540Z,10.80
2019-03-15T05:43:18.796Z,13.93
2019-03-15T05:43:52.987Z,13.10
2019-03-15T05:44:23.520Z,11.00
2019-03-15T05:44:55.228Z,13.93
2019-03-15T05:45:26.437Z,12.80
2019-03-15T05:45:57.651Z,12.13
2019-03-15T05:46:28.829Z,11.40
2019-03-15T05:47:00.043Z,11.93
2019-03-15T05:47:31.192Z,11.77
2019-03-15T05:48:02.405Z,11.37
2019-03-15T05:48:33.571Z,13.23
2019-03-15T05:49:04.783Z,12.57
2019-03-15T05:49:35.957Z,13.33
2019-03-15T05:50:10.983Z,14.53
2019-03-15T05:50:42.156Z,13.30
2019-03-15T05:51:13.363Z,20.27
2019-03-15T05:51:44.515Z,12.20
2019-03-15T05:52:15.775Z,12.07
2019-03-15T05:52:46.935Z,13.37
2019-03-15T05:53:18.146Z,13.17
2019-03-15T05:53:49.304Z,11.83
2019-03-15T05:54:20.516Z,12.43
2019-03-15T05:54:51.748Z,12.80
2019-03-15T05:55:23.289Z,14.07
2019-03-15T05:55:54.535Z,12.57
2019-03-15T05:56:25.770Z,11.47
2019-03-15T05:56:57.071Z,12.27
2019-03-15T05:57:28.275Z,11.17
2019-03-15T05:57:59.684Z,10.43
2019-03-15T05:58:30.864Z,11.77
2019-03-15T05:59:02.068Z,11.87
2019-03-15T05:59:33.246Z,11.30
2019-03-15T06:00:11.224Z,12.23
2019-03-15T06:00:42.381Z,11.43
2019-03-15T06:01:13.592Z,10.60
2019-03-15T06:01:44.746Z,13.17
2019-03-15T06:02:15.948Z,13.47
2019-03-15T06:02:47.108Z,12.37
2019-03-15T06:03:18.313Z,13.90
2019-03-15T06:03:49.520Z,12.20
2019-03-15T06:04:20.805Z,10.93
2019-03-15T06:04:52.094Z,11.43
2019-03-15T06:05:23.479Z,12.03
2019-03-15T06:05:54.673Z,13.27
2019-03-15T06:06:25.854Z,14.07
2019-03-15T06:06:58.035Z,11.73
2019-03-15T06:07:29.231Z,11.93
2019-03-15T06:08:00.417Z,12.00
2019-03-15T06:08:31.625Z,11.13
2019-03-15T06:09:04.606Z,13.00
2019-03-15T06:09:35.788Z,11.03
2019-03-15T06:10:11.489Z,12.47
2019-03-15T06:10:42.671Z,10.50
2019-03-15T06:11:13.861Z,10.17
2019-03-15T06:11:45.035Z,11.57
2019-03-15T06:12:16.218Z,15.73
2019-03-15T06:12:47.410Z,14.43
2019-03-15T06:13:18.595Z,10.77
2019-03-15T06:13:49.827Z,11.40
2019-03-15T06:14:21.075Z,10.07
2019-03-15T06:14:52.250Z,9.50
2019-03-15T06:15:23.443Z,9.77
2019-03-15T06:15:54.635Z,8.93
2019-03-15T06:16:25.820Z,8.80
2019-03-15T06:16:57.002Z,10.00
2019-03-15T06:17:28.209Z,12.00
2019-03-15T06:17:59.380Z,10.57
2019-03-15T06:18:30.557Z,9.83
2019-03-15T06:19:01.744Z,9.77
2019-03-15T06:19:32.936Z,10.07
2019-03-15T06:20:09.638Z,9.73
2019-03-15T06:20:40.948Z,9.90
2019-03-15T06:21:12.156Z,11.27
2019-03-15T06:21:43.337Z,11.87
2019-03-15T06:22:14.573Z,10.20
2019-03-15T06:22:45.796Z,9.70
2019-03-15T06:23:17.168Z,9.73
2019-03-15T06:23:48.353Z,9.40
2019-03-15T06:24:19.624Z,8.97
2019-03-15T06:24:50.788Z,10.20
2019-03-15T06:25:22.019Z,9.83
2019-03-15T06:25:54.279Z,9.20
2019-03-15T06:26:25.511Z,8.87
2019-03-15T06:26:56.748Z,9.27
2019-03-15T06:27:31.010Z,10.87
2019-03-15T06:28:01.131Z,10.83
2019-03-15T06:28:32.382Z,11.23
2019-03-15T06:29:03.569Z,8.87
2019-03-15T06:29:34.755Z,9.33
2019-03-15T06:30:13.824Z,7.77
2019-03-15T06:30:46.020Z,8.03
2019-03-15T06:31:17.207Z,8.20
2019-03-15T06:31:48.403Z,11.43
2019-03-15T06:32:19.583Z,8.60
2019-03-15T06:32:50.879Z,13.00
2019-03-15T06:33:22.194Z,9.93
2019-03-15T06:33:53.587Z,14.97
2019-03-15T06:34:24.768Z,10.73
2019-03-15T06:34:55.974Z,10.17
2019-03-15T06:35:27.171Z,10.13
2019-03-15T06:35:58.498Z,8.03
2019-03-15T06:36:29.779Z,9.70
2019-03-15T06:37:01.012Z,9.07
2019-03-15T06:37:32.187Z,8.53
2019-03-15T06:38:03.404Z,8.27
2019-03-15T06:38:34.583Z,8.20
2019-03-15T06:39:05.966Z,7.90
2019-03-15T06:39:37.222Z,9.33
2019-03-15T06:40:09.337Z,8.33
2019-03-15T06:40:40.519Z,8.60
2019-03-15T06:41:14.302Z,8.23
2019-03-15T06:41:44.784Z,8.37
2019-03-15T06:42:16.008Z,9.67
2019-03-15T06:42:47.159Z,10.83
2019-03-15T06:43:18.390Z,12.87
2019-03-15T06:43:50.552Z,12.77
2019-03-15T06:44:21.783Z,9.90
2019-03-15T06:44:58.014Z,9.73
2019-03-15T06:45:26.215Z,10.87